createdAt,value
2018-06-11T00:02:12.557Z,18.42
2018-06-11T00:04:47.093Z,18.49
2018-06-11T00:07:21.569Z,18.49
2018-06-11T00:09:56.219Z,18.34
2018-06-11T00:12:30.708Z,18.47
2018-06-11T00:15:05.108Z,18.47
2018-06-11T00:17:39.492Z,18.46
2018-06-11T00:20:14.288Z,18.50
2018-06-11T00:22:48.913Z,18.35
2018-06-11T00:25:23.481Z,18.47
2018-06-11T00:27:58.023Z,18.40
2018-06-11T00:30:32.652Z,18.29
2018-06-11T00:33:07.067Z,18.23
2018-06-11T00:35:41.740Z,18.17
2018-06-11T00:38:16.396Z,18.17
2018-06-11T00:40:50.789Z,18.12
2018-06-11T00:43:25.205Z,17.87
2018-06-11T00:45:59.663Z,18.11
2018-06-11T00:48:34.098Z,18.11
2018-06-11T00:51:08.888Z,18.06
2018-06-11T00:53:43.381Z,17.98
2018-06-11T00:56:17.760Z,17.85
2018-06-11T00:58:52.501Z,17.72
2018-06-11T01:01:26.900Z,17.91
2018-06-11T01:04:01.531Z,17.89
2018-06-11T01:06:35.952Z,18.00
2018-06-11T01:09:10.875Z,18.08
2018-06-11T01:11:45.708Z,18.13
2018-06-11T01:14:20.056Z,18.16
2018-06-11T01:16:54.561Z,18.09
2018-06-11T01:19:29.149Z,18.13
2018-06-11T01:22:03.509Z,18.07
2018-06-11T01:24:37.929Z,17.91
2018-06-11T01:27:12.831Z,17.80
2018-06-11T01:29:47.625Z,17.76
2018-06-11T01:32:22.177Z,17.74
2018-06-11T01:34:56.569Z,17.74
2018-06-11T01:37:31.221Z,17.67
2018-06-11T01:40:05.849Z,17.61
2018-06-11T01:42:40.409Z,17.65
2018-06-11T01:45:14.999Z,17.66
2018-06-11T01:47:49.617Z,17.60
2018-06-11T01:50:26.298Z,17.74
2018-06-11T01:53:00.948Z,17.72
2018-06-11T01:55:35.844Z,17.64
2018-06-11T01:58:10.373Z,17.60
2018-06-11T02:00:44.852Z,17.61
2018-06-11T02:03:19.332Z,17.60
2018-06-11T02:05:53.684Z,17.56
2018-06-11T02:08:28.300Z,17.34
2018-06-11T02:11:02.746Z,17.42
2018-06-11T02:13:37.240Z,17.51
2018-06-11T02:16:11.602Z,17.47
2018-06-11T02:18:46.088Z,17.49
2018-06-11T02:21:20.542Z,17.36
2018-06-11T02:23:55.180Z,17.37
2018-06-11T02:26:29.969Z,17.52
2018-06-11T02:29:04.466Z,17.46
2018-06-11T02:31:39.038Z,17.43
2018-06-11T02:34:13.429Z,17.46
2018-06-11T02:36:47.876Z,17.32
2018-06-11T02:39:22.233Z,17.28
2018-06-11T02:41:56.625Z,17.27
2018-06-11T02:44:31.033Z,17.28
2018-06-11T02:47:05.636Z,17.28
2018-06-11T02:49:40.136Z,17.14
2018-06-11T02:52:14.801Z,17.17
2018-06-11T02:54:49.188Z,17.09
2018-06-11T02:57:23.535Z,17.20
2018-06-11T02:59:57.951Z,17.23
2018-06-11T03:02:32.408Z,16.99
2018-06-11T03:05:06.897Z,17.10
2018-06-11T03:07:41.228Z,16.99
2018-06-11T03:10:15.857Z,16.97
2018-06-11T03:12:50.767Z,17.10
2018-06-11T03:15:25.421Z,17.07
2018-06-11T03:17:59.847Z,16.85
2018-06-11T03:20:34.237Z,16.89
2018-06-11T03:23:08.928Z,17.03
2018-06-11T03:25:43.500Z,17.01
2018-06-11T03:28:18.025Z,17.05
2018-06-11T03:30:53.378Z,17.05
2018-06-11T03:33:27.973Z,17.16
2018-06-11T03:36:02.493Z,17.15
2018-06-11T03:38:36.956Z,17.17
2018-06-11T03:41:11.312Z,17.03
2018-06-11T03:43:45.839Z,17.15
2018-06-11T03:46:20.665Z,17.08
2018-06-11T03:48:55.556Z,17.19
2018-06-11T03:51:30.124Z,17.20
2018-06-11T03:54:04.569Z,16.91
2018-06-11T03:56:39.269Z,17.18
2018-06-11T03:59:13.676Z,17.11
2018-06-11T04:01:48.509Z,17.27
2018-06-11T04:04:23.353Z,17.32
2018-06-11T04:06:57.849Z,17.28
2018-06-11T04:09:32.860Z,17.24
2018-06-11T04:12:07.350Z,17.11
2018-06-11T04:14:41.821Z,17.27
2018-06-11T04:17:16.545Z,17.17
2018-06-11T04:19:51.192Z,17.16
2018-06-11T04:22:26.035Z,17.08
2018-06-11T04:25:00.695Z,17.15
2018-06-11T04:27:35.394Z,17.14
2018-06-11T04:30:10.517Z,17.10
2018-06-11T04:32:45.295Z,17.16
2018-06-11T04:35:19.884Z,17.11
2018-06-11T04:37:54.357Z,17.01
2018-06-11T04:40:29.422Z,17.03
2018-06-11T04:43:04.608Z,16.96
2018-06-11T04:45:39.414Z,17.12
2018-06-11T04:48:13.901Z,17.26
2018-06-11T04:50:48.430Z,17.26
2018-06-11T04:53:22.825Z,17.22
2018-06-11T04:55:57.325Z,17.38
2018-06-11T04:58:31.665Z,17.42
2018-06-11T05:01:06.356Z,17.45
2018-06-11T05:03:40.825Z,17.48
2018-06-11T05:06:15.702Z,17.60
2018-06-11T05:08:50.161Z,17.64
2018-06-11T05:11:24.502Z,17.63
2018-06-11T05:13:58.879Z,17.42
2018-06-11T05:16:33.312Z,17.45
2018-06-11T05:19:07.813Z,17.75
2018-06-11T05:21:42.372Z,17.56
2018-06-11T05:24:16.701Z,17.58
2018-06-11T05:26:51.380Z,17.66
2018-06-11T05:29:25.935Z,17.89
2018-06-11T05:32:00.459Z,17.68
2018-06-11T05:34:34.908Z,17.97
2018-06-11T05:37:09.125Z,17.88
2018-06-11T05:39:43.440Z,18.02
2018-06-11T05:42:17.680Z,18.36
2018-06-11T05:44:52.100Z,18.58
2018-06-11T05:47:26.459Z,18.47
2018-06-11T05:50:00.747Z,18.41
2018-06-11T05:52:35.160Z,18.55
2018-06-11T05:55:09.492Z,18.75
2018-06-11T05:57:44.073Z,18.85
2018-06-11T06:00:18.547Z,18.75
2018-06-11T06:02:52.951Z,18.85
2018-06-11T06:05:27.289Z,19.02
2018-06-11T06:08:01.603Z,18.68
2018-06-11T06:10:35.831Z,19.01
2018-06-11T06:13:10.445Z,19.19
2018-06-11T06:15:44.816Z,19.41
2018-06-11T06:18:19.168Z,19.12
2018-06-11T06:20:53.444Z,19.11
2018-06-11T06:23:27.832Z,19.21
2018-06-11T06:26:02.244Z,20.00
2018-06-11T06:28:36.491Z,20.26
2018-06-11T06:31:10.720Z,20.24
2018-06-11T06:33:45.348Z,20.12
2018-06-11T06:36:19.804Z,20.49
2018-06-11T06:38:54.176Z,20.35
2018-06-11T06:41:28.584Z,20.91
2018-06-11T06:44:03.056Z,21.41
2018-06-11T06:46:37.443Z,22.54
2018-06-11T06:49:11.827Z,22.96
2018-06-11T06:51:46.168Z,23.32
2018-06-11T06:54:20.772Z,24.05
2018-06-11T06:56:55.100Z,24.25
2018-06-11T06:59:29.466Z,24.20
2018-06-11T07:02:03.909Z,24.49
2018-06-11T07:04:38.232Z,23.92
2018-06-11T07:07:12.944Z,24.19
2018-06-11T07:09:47.261Z,23.69
2018-06-11T07:12:21.615Z,24.30
2018-06-11T07:14:56.064Z,24.52
2018-06-11T07:17:30.445Z,24.08
2018-06-11T07:20:05.016Z,24.13
2018-06-11T07:22:39.420Z,24.47
2018-06-11T07:25:13.681Z,25.17
2018-06-11T07:27:48.043Z,24.37
2018-06-11T07:30:22.292Z,25.23
2018-06-11T07:32:56.580Z,24.84
2018-06-11T07:35:31.203Z,24.58
2018-06-11T07:38:05.923Z,25.01
2018-06-11T07:40:40.244Z,26.16
2018-06-11T07:43:14.736Z,26.74
2018-06-11T07:45:49.181Z,25.70
2018-06-11T07:48:23.580Z,26.00
2018-06-11T07:50:58.000Z,26.01
2018-06-11T07:53:32.415Z,25.60
2018-06-11T07:56:07.139Z,26.34
2018-06-11T07:58:41.439Z,26.51
2018-06-11T08:01:15.829Z,27.46
2018-06-11T08:03:50.147Z,26.48
2018-06-11T08:06:24.668Z,26.45
2018-06-11T08:08:59.040Z,25.06
2018-06-11T08:11:33.423Z,24.82
2018-06-11T08:14:07.839Z,25.03
2018-06-11T08:16:42.204Z,25.27
2018-06-11T08:19:16.619Z,27.15
2018-06-11T08:21:51.117Z,26.93
2018-06-11T08:24:25.522Z,26.43
2018-06-11T08:26:59.767Z,26.10
2018-06-11T08:29:34.455Z,26.32
2018-06-11T08:32:08.692Z,26.75
2018-06-11T08:34:43.076Z,26.83
2018-06-11T08:37:17.556Z,27.37
2018-06-11T08:39:51.959Z,28.01
2018-06-11T08:42:26.671Z,26.56
2018-06-11T08:45:01.108Z,26.25
2018-06-11T08:47:35.524Z,26.13
2018-06-11T08:50:11.831Z,25.46
2018-06-11T08:52:46.170Z,25.88
2018-06-11T08:55:20.596Z,24.88
2018-06-11T08:57:55.048Z,24.60
2018-06-11T09:00:29.425Z,24.52
2018-06-11T09:03:04.083Z,25.61
2018-06-11T09:05:38.315Z,24.09
2018-06-11T09:08:13.018Z,24.26
2018-06-11T09:10:47.712Z,25.00
2018-06-11T09:13:21.959Z,26.29
2018-06-11T09:15:56.364Z,25.80
2018-06-11T09:18:30.793Z,25.15
2018-06-11T09:21:05.116Z,27.56
2018-06-11T09:23:39.492Z,28.45
2018-06-11T09:26:14.077Z,27.17
2018-06-11T09:28:48.587Z,25.28
2018-06-11T09:31:22.783Z,25.62
2018-06-11T09:33:57.192Z,27.01
2018-06-11T09:36:32.063Z,27.28
2018-06-11T09:39:08.093Z,28.04
2018-06-11T09:41:42.315Z,27.94
2018-06-11T09:44:16.676Z,28.49
2018-06-11T09:46:51.119Z,27.57
2018-06-11T09:49:25.474Z,27.34
2018-06-11T09:51:59.839Z,27.43
2018-06-11T09:54:34.247Z,27.50
2018-06-11T09:57:08.611Z,28.19
2018-06-11T09:59:42.987Z,28.39
2018-06-11T10:02:17.504Z,29.77
2018-06-11T10:04:52.307Z,29.24
2018-06-11T10:07:26.603Z,29.82
2018-06-11T10:10:01.056Z,31.07
2018-06-11T10:12:35.344Z,31.38
2018-06-11T10:15:09.788Z,30.20
2018-06-11T10:17:44.231Z,31.09
2018-06-11T10:20:18.759Z,29.61
2018-06-11T10:22:52.951Z,30.12
2018-06-11T10:25:27.327Z,31.27
2018-06-11T10:28:01.972Z,30.48
2018-06-11T10:30:36.352Z,30.99
2018-06-11T10:33:10.676Z,30.35
2018-06-11T10:35:45.328Z,30.86
2018-06-11T10:38:19.604Z,31.30
2018-06-11T10:40:53.927Z,29.83
2018-06-11T10:43:28.616Z,31.16
2018-06-11T10:46:02.888Z,30.39
2018-06-11T10:48:37.127Z,31.39
2018-06-11T10:51:11.804Z,30.48
2018-06-11T10:53:46.079Z,31.91
2018-06-11T10:56:20.427Z,30.59
2018-06-11T10:58:55.044Z,30.26
2018-06-11T11:01:29.321Z,31.66
2018-06-11T11:04:03.828Z,30.23
2018-06-11T11:06:38.142Z,30.10
2018-06-11T11:09:12.454Z,30.24
2018-06-11T11:11:46.850Z,31.84
2018-06-11T11:14:21.352Z,30.43
2018-06-11T11:16:55.536Z,31.60
2018-06-11T11:19:29.868Z,30.74
2018-06-11T11:22:04.284Z,30.14
2018-06-11T11:24:38.664Z,30.43
2018-06-11T11:27:13.109Z,29.60
2018-06-11T11:29:47.471Z,29.18
2018-06-11T11:32:22.245Z,28.70
2018-06-11T11:34:56.743Z,29.00
2018-06-11T11:37:31.004Z,28.32
2018-06-11T11:40:05.429Z,28.81
2018-06-11T11:42:39.836Z,29.80
2018-06-11T11:45:14.236Z,29.47
2018-06-11T11:47:48.680Z,28.85
2018-06-11T11:50:23.233Z,27.84
2018-06-11T11:52:57.586Z,28.53
2018-06-11T11:55:32.193Z,27.85
2018-06-11T11:58:06.685Z,27.78
2018-06-11T12:00:41.617Z,26.36
2018-06-11T12:03:16.048Z,26.47
2018-06-11T12:05:50.488Z,26.18
2018-06-11T12:08:24.912Z,25.90
2018-06-11T12:10:59.453Z,25.99
2018-06-11T12:13:34.085Z,25.54
2018-06-11T12:16:08.987Z,25.19
2018-06-11T12:18:43.624Z,24.97
2018-06-11T12:21:18.011Z,25.05
2018-06-11T12:23:52.368Z,24.60
2018-06-11T12:26:26.801Z,24.63
2018-06-11T12:29:01.366Z,24.92
2018-06-11T12:31:35.897Z,24.70
2018-06-11T12:34:10.344Z,24.87
2018-06-11T12:36:44.742Z,25.16
2018-06-11T12:39:19.241Z,24.95
2018-06-11T12:41:53.641Z,24.85
2018-06-11T12:44:27.948Z,24.61
2018-06-11T12:47:02.366Z,24.49
2018-06-11T12:49:37.037Z,24.48
2018-06-11T12:52:11.521Z,24.44
2018-06-11T12:54:46.084Z,24.56
2018-06-11T12:57:20.756Z,24.92
2018-06-11T12:59:55.522Z,24.83
2018-06-11T13:02:30.261Z,25.15
2018-06-11T13:05:05.248Z,25.11
2018-06-11T13:07:39.798Z,25.16
2018-06-11T13:10:14.320Z,25.29
2018-06-11T13:12:48.880Z,25.02
2018-06-11T13:15:23.766Z,25.24
2018-06-11T13:17:58.299Z,25.29
2018-06-11T13:20:33.256Z,25.50
2018-06-11T13:23:07.739Z,25.51
2018-06-11T13:25:42.357Z,25.55
2018-06-11T13:28:16.873Z,25.49
2018-06-11T13:30:51.257Z,25.65
2018-06-11T13:33:25.844Z,25.32
2018-06-11T13:36:00.674Z,25.86
2018-06-11T13:38:35.240Z,25.81
2018-06-11T13:41:10.136Z,25.87
2018-06-11T13:43:44.500Z,25.44
2018-06-11T13:46:19.120Z,25.35
2018-06-11T13:48:53.677Z,25.44
2018-06-11T13:51:28.153Z,25.39
2018-06-11T13:54:02.688Z,25.25
2018-06-11T13:56:37.205Z,25.10
2018-06-11T13:59:11.785Z,25.30
2018-06-11T14:01:46.300Z,25.65
2018-06-11T14:04:20.689Z,25.48
2018-06-11T14:06:55.305Z,25.23
2018-06-11T14:09:29.782Z,25.25
2018-06-11T14:12:04.242Z,25.23
2018-06-11T14:14:38.802Z,25.30
2018-06-11T14:17:13.155Z,25.12
2018-06-11T14:19:47.539Z,25.11
2018-06-11T14:22:21.913Z,24.65
2018-06-11T14:24:56.342Z,24.85
2018-06-11T14:27:30.857Z,24.43
2018-06-11T14:30:05.308Z,24.39
2018-06-11T14:32:39.761Z,24.44
2018-06-11T14:35:14.204Z,24.05
2018-06-11T14:37:48.876Z,23.73
2018-06-11T14:40:23.757Z,24.07
2018-06-11T14:42:58.208Z,24.05
2018-06-11T14:45:32.598Z,23.78
2018-06-11T14:48:07.157Z,23.88
2018-06-11T14:50:41.504Z,23.64
2018-06-11T14:53:15.873Z,23.67
2018-06-11T14:55:50.628Z,23.78
2018-06-11T14:58:25.269Z,23.65
2018-06-11T15:00:59.744Z,23.94
2018-06-11T15:03:34.163Z,23.88
2018-06-11T15:06:08.589Z,23.89
2018-06-11T15:08:43.127Z,23.63
2018-06-11T15:11:17.844Z,23.86
2018-06-11T15:13:52.592Z,23.79
2018-06-11T15:16:27.170Z,23.66
2018-06-11T15:19:01.725Z,23.40
2018-06-11T15:21:36.260Z,23.53
2018-06-11T15:24:10.650Z,23.54
2018-06-11T15:26:45.166Z,23.76
2018-06-11T15:29:19.538Z,23.44
2018-06-11T15:31:54.077Z,23.51
2018-06-11T15:34:28.758Z,23.59
2018-06-11T15:37:03.360Z,23.47
2018-06-11T15:39:37.858Z,23.32
2018-06-11T15:42:12.253Z,23.43
2018-06-11T15:44:46.780Z,23.31
2018-06-11T15:47:21.461Z,23.02
2018-06-11T15:49:56.264Z,23.25
2018-06-11T15:52:31.076Z,22.96
2018-06-11T15:55:05.495Z,22.90
2018-06-11T15:57:40.060Z,23.10
2018-06-11T16:00:14.705Z,22.91
2018-06-11T16:02:49.184Z,22.87
2018-06-11T16:05:23.612Z,23.06
2018-06-11T16:07:57.992Z,23.04
2018-06-11T16:10:32.488Z,22.81
2018-06-11T16:13:06.781Z,22.99
2018-06-11T16:15:41.339Z,22.81
2018-06-11T16:18:16.053Z,22.77
2018-06-11T16:20:50.485Z,22.84
2018-06-11T16:23:24.977Z,22.82
2018-06-11T16:25:59.412Z,22.52
2018-06-11T16:28:33.797Z,22.66
2018-06-11T16:31:08.159Z,22.64
2018-06-11T16:33:42.404Z,22.70
2018-06-11T16:36:16.741Z,22.64
2018-06-11T16:38:51.064Z,22.73
2018-06-11T16:41:25.946Z,22.84
2018-06-11T16:44:00.392Z,22.42
2018-06-11T16:46:34.860Z,22.29
2018-06-11T16:49:09.274Z,22.42
2018-06-11T16:51:43.738Z,22.52
2018-06-11T16:54:18.220Z,22.51
2018-06-11T16:56:52.557Z,22.59
2018-06-11T16:59:27.244Z,22.60
2018-06-11T17:02:01.881Z,22.31
2018-06-11T17:04:36.400Z,22.20
2018-06-11T17:07:11.157Z,22.20
2018-06-11T17:09:45.621Z,22.21
2018-06-11T17:12:19.969Z,22.37
2018-06-11T17:14:54.332Z,22.29
2018-06-11T17:17:28.916Z,22.36
2018-06-11T17:20:03.776Z,22.40
2018-06-11T17:22:38.148Z,22.23
2018-06-11T17:25:12.548Z,22.07
2018-06-11T17:27:47.001Z,22.05
2018-06-11T17:30:21.288Z,22.17
2018-06-11T17:32:55.813Z,22.02
2018-06-11T17:35:30.543Z,22.11
2018-06-11T17:38:05.295Z,21.96
2018-06-11T17:40:39.564Z,22.04
2018-06-11T17:43:13.949Z,21.90
2018-06-11T17:45:48.550Z,22.02
2018-06-11T17:48:23.023Z,21.85
2018-06-11T17:50:57.516Z,21.74
2018-06-11T17:53:32.313Z,21.75
2018-06-11T17:56:06.785Z,21.78
2018-06-11T17:58:41.326Z,21.72
2018-06-11T18:01:15.731Z,21.70
2018-06-11T18:03:50.250Z,21.93
2018-06-11T18:06:24.801Z,21.85
2018-06-11T18:08:59.304Z,21.73
2018-06-11T18:11:33.656Z,21.67
2018-06-11T18:14:08.259Z,21.62
2018-06-11T18:16:42.670Z,21.51
2018-06-11T18:19:17.202Z,21.63
2018-06-11T18:21:51.837Z,21.59
2018-06-11T18:24:26.400Z,21.52
2018-06-11T18:27:01.001Z,21.63
2018-06-11T18:29:35.577Z,21.42
2018-06-11T18:32:09.965Z,21.59
2018-06-11T18:34:44.488Z,21.45
2018-06-11T18:37:18.890Z,21.48
2018-06-11T18:39:53.353Z,21.33
2018-06-11T18:42:27.838Z,21.39
2018-06-11T18:45:02.303Z,21.37
2018-06-11T18:47:36.836Z,21.25
2018-06-11T18:50:11.257Z,21.35
2018-06-11T18:52:45.957Z,21.18
2018-06-11T18:55:20.581Z,21.23
2018-06-11T18:57:55.276Z,21.21
2018-06-11T19:00:29.928Z,21.24
2018-06-11T19:03:04.568Z,21.30
2018-06-11T19:05:39.128Z,21.07
2018-06-11T19:08:13.645Z,21.17
2018-06-11T19:10:48.266Z,20.98
2018-06-11T19:13:22.628Z,21.07
2018-06-11T19:15:57.316Z,21.07
2018-06-11T19:18:31.688Z,21.12
2018-06-11T19:21:06.210Z,21.02
2018-06-11T19:23:40.673Z,21.04
2018-06-11T19:26:15.182Z,20.95
2018-06-11T19:28:49.720Z,20.97
2018-06-11T19:31:24.277Z,20.92
2018-06-11T19:33:58.829Z,20.94
2018-06-11T19:36:33.297Z,20.84
2018-06-11T19:39:07.857Z,20.96
2018-06-11T19:41:42.293Z,20.77
2018-06-11T19:44:16.596Z,20.59
2018-06-11T19:46:50.991Z,20.60
2018-06-11T19:49:25.494Z,20.69
2018-06-11T19:51:59.932Z,20.53
2018-06-11T19:54:34.298Z,20.54
2018-06-11T19:57:08.737Z,20.54
2018-06-11T19:59:43.152Z,20.44
2018-06-11T20:02:17.977Z,20.49
2018-06-11T20:04:52.568Z,20.52
2018-06-11T20:07:26.964Z,20.41
2018-06-11T20:10:01.519Z,20.39
2018-06-11T20:12:35.918Z,20.34
2018-06-11T20:15:10.340Z,20.43
2018-06-11T20:17:44.796Z,20.35
2018-06-11T20:20:19.147Z,20.37
2018-06-11T20:22:53.665Z,20.33
2018-06-11T20:25:27.989Z,20.27
2018-06-11T20:28:02.559Z,20.10
2018-06-11T20:30:37.547Z,20.05
2018-06-11T20:33:12.090Z,20.16
2018-06-11T20:35:46.509Z,20.22
2018-06-11T20:38:21.021Z,20.14
2018-06-11T20:40:55.781Z,20.06
2018-06-11T20:43:30.399Z,19.96
2018-06-11T20:46:04.905Z,20.00
2018-06-11T20:48:39.449Z,20.01
2018-06-11T20:51:13.972Z,19.87
2018-06-11T20:53:48.381Z,19.94
2018-06-11T20:56:22.855Z,19.87
2018-06-11T20:58:57.317Z,20.02
2018-06-11T21:01:31.933Z,19.90
2018-06-11T21:04:06.638Z,19.84
2018-06-11T21:06:41.076Z,19.96
2018-06-11T21:09:15.675Z,19.93
2018-06-11T21:11:50.285Z,19.74
2018-06-11T21:14:25.064Z,19.82
2018-06-11T21:16:59.934Z,19.79
2018-06-11T21:19:34.488Z,19.65
2018-06-11T21:22:08.949Z,19.58
2018-06-11T21:24:43.432Z,19.64
2018-06-11T21:27:17.872Z,19.60
2018-06-11T21:29:52.224Z,19.66
2018-06-11T21:32:26.644Z,19.61
2018-06-11T21:35:01.360Z,19.49
2018-06-11T21:37:35.957Z,19.56
2018-06-11T21:40:10.494Z,19.66
2018-06-11T21:42:45.001Z,19.67
2018-06-11T21:45:19.657Z,19.59
2018-06-11T21:47:54.118Z,19.53
2018-06-11T21:50:28.848Z,19.33
2018-06-11T21:53:03.309Z,19.35
2018-06-11T21:55:37.729Z,19.37
2018-06-11T21:58:12.402Z,19.33
2018-06-11T22:00:47.005Z,19.23
2018-06-11T22:03:21.931Z,19.34
2018-06-11T22:05:56.509Z,19.12
2018-06-11T22:08:31.233Z,19.19
2018-06-11T22:11:05.713Z,19.18
2018-06-11T22:13:40.296Z,19.30
2018-06-11T22:16:14.936Z,19.21
2018-06-11T22:18:49.597Z,19.22
2018-06-11T22:21:24.161Z,19.30
2018-06-11T22:23:59.465Z,19.17
2018-06-11T22:26:33.777Z,19.07
2018-06-11T22:29:08.288Z,19.01
2018-06-11T22:31:42.767Z,19.07
2018-06-11T22:34:17.296Z,19.17
2018-06-11T22:36:51.714Z,19.03
2018-06-11T22:39:26.301Z,19.10
2018-06-11T22:42:00.730Z,19.14
2018-06-11T22:44:35.226Z,18.94
2018-06-11T22:47:09.784Z,18.93
2018-06-11T22:49:44.321Z,18.87
2018-06-11T22:52:18.755Z,18.97
2018-06-11T22:54:53.341Z,18.95
2018-06-11T22:57:27.974Z,18.99
2018-06-11T23:00:02.406Z,18.88
2018-06-11T23:02:37.115Z,18.84
2018-06-11T23:05:11.654Z,18.81
2018-06-11T23:07:46.284Z,18.77
2018-06-11T23:10:20.823Z,18.69
2018-06-11T23:12:55.256Z,18.72
2018-06-11T23:15:29.841Z,18.65
2018-06-11T23:18:04.202Z,18.56
2018-06-11T23:20:38.776Z,18.40
2018-06-11T23:23:13.180Z,18.70
2018-06-11T23:25:47.572Z,18.66
2018-06-11T23:28:22.445Z,18.53
2018-06-11T23:30:57.095Z,18.37
2018-06-11T23:33:31.581Z,18.10
2018-06-11T23:36:06.081Z,18.28
2018-06-11T23:38:40.404Z,18.46
2018-06-11T23:41:14.776Z,18.35
2018-06-11T23:43:49.207Z,18.22
2018-06-11T23:46:23.636Z,18.35
2018-06-11T23:48:58.040Z,18.22
2018-06-11T23:51:32.472Z,18.21
2018-06-11T23:54:06.900Z,18.03
2018-06-11T23:56:41.304Z,18.09
2018-06-11T23:59:15.832Z,18.00
